sensor_id;sensor_type;location;lat;lon;timestamp;temperature;humidity
35531;DHT22;21637;53.352;-6.356;2024-01-07T00:00:20;1.20;99.90
35531;DHT22;21637;53.352;-6.356;2024-01-07T00:02:45;1.10;99.90
35531;DHT22;21637;53.352;-6.356;2024-01-07T00:05:12;1.10;99.90
35531;DHT22;21637;53.352;-6.356;2024-01-07T00:07:37;1.10;99.90
35531;DHT22;21637;53.352;-6.356;2024-01-07T00:10:03;1.10;99.90
35531;DHT22;21637;53.352;-6.356;2024-01-07T00:12:30;1.10;99.90
35531;DHT22;21637;53.352;-6.356;2024-01-07T00:14:59;0.90;99.90
35531;DHT22;21637;53.352;-6.356;2024-01-07T00:17:24;1.00;99.90
35531;DHT22;21637;53.352;-6.356;2024-01-07T00:19:50;0.90;99.90
35531;DHT22;21637;53.352;-6.356;2024-01-07T00:22:17;0.90;99.90
35531;DHT22;21637;53.352;-6.356;2024-01-07T00:24:43;0.90;99.90
35531;DHT22;21637;53.352;-6.356;2024-01-07T00:27:09;1.00;99.90
35531;DHT22;21637;53.352;-6.356;2024-01-07T00:29:35;1.00;99.90
35531;DHT22;21637;53.352;-6.356;2024-01-07T00:32:01;1.10;99.90
35531;DHT22;21637;53.352;-6.356;2024-01-07T00:34:27;1.00;99.90
35531;DHT22;21637;53.352;-6.356;2024-01-07T00:36:53;1.00;99.90
35531;DHT22;21637;53.352;-6.356;2024-01-07T00:39:19;1.00;99.90
35531;DHT22;21637;53.352;-6.356;2024-01-07T00:41:44;1.10;99.90
35531;DHT22;21637;53.352;-6.356;2024-01-07T00:44:10;1.00;99.90
35531;DHT22;21637;53.352;-6.356;2024-01-07T00:46:36;0.90;99.90
35531;DHT22;21637;53.352;-6.356;2024-01-07T00:49:01;1.00;99.90
35531;DHT22;21637;53.352;-6.356;2024-01-07T00:51:27;0.90;99.90
35531;DHT22;21637;53.352;-6.356;2024-01-07T00:53:53;0.90;99.90
35531;DHT22;21637;53.352;-6.356;2024-01-07T00:56:18;0.90;99.90
35531;DHT22;21637;53.352;-6.356;2024-01-07T00:58:44;0.90;99.90
35531;DHT22;21637;53.352;-6.356;2024-01-07T01:01:10;0.90;99.90
35531;DHT22;21637;53.352;-6.356;2024-01-07T01:03:36;0.90;99.90
35531;DHT22;21637;53.352;-6.356;2024-01-07T01:06:01;0.90;99.90
35531;DHT22;21637;53.352;-6.356;2024-01-07T01:08:28;0.90;99.90
35531;DHT22;21637;53.352;-6.356;2024-01-07T01:10:53;0.80;99.90
35531;DHT22;21637;53.352;-6.356;2024-01-07T01:13:19;0.80;99.90
35531;DHT22;21637;53.352;-6.356;2024-01-07T01:15:45;0.80;99.90
35531;DHT22;21637;53.352;-6.356;2024-01-07T01:18:11;0.80;99.90
35531;DHT22;21637;53.352;-6.356;2024-01-07T01:20:37;0.80;99.90
35531;DHT22;21637;53.352;-6.356;2024-01-07T01:23:03;0.70;99.90
35531;DHT22;21637;53.352;-6.356;2024-01-07T01:25:29;0.60;99.90
35531;DHT22;21637;53.352;-6.356;2024-01-07T01:27:56;0.80;99.90
35531;DHT22;21637;53.352;-6.356;2024-01-07T01:30:22;0.80;99.90
35531;DHT22;21637;53.352;-6.356;2024-01-07T01:32:48;0.70;99.90
35531;DHT22;21637;53.352;-6.356;2024-01-07T01:35:14;0.70;99.90
35531;DHT22;21637;53.352;-6.356;2024-01-07T01:37:39;0.60;99.90
35531;DHT22;21637;53.352;-6.356;2024-01-07T01:40:06;0.70;99.90
35531;DHT22;21637;53.352;-6.356;2024-01-07T01:42:32;0.70;99.90
35531;DHT22;21637;53.352;-6.356;2024-01-07T01:44:57;0.80;99.90
35531;DHT22;21637;53.352;-6.356;2024-01-07T01:47:28;0.90;99.90
35531;DHT22;21637;53.352;-6.356;2024-01-07T01:49:55;0.90;99.90
35531;DHT22;21637;53.352;-6.356;2024-01-07T01:52:21;1.10;99.90
35531;DHT22;21637;53.352;-6.356;2024-01-07T01:54:47;0.90;99.90
35531;DHT22;21637;53.352;-6.356;2024-01-07T01:57:16;1.10;99.90
35531;DHT22;21637;53.352;-6.356;2024-01-07T01:59:44;1.00;99.90
35531;DHT22;21637;53.352;-6.356;2024-01-07T02:02:11;1.10;99.90
35531;DHT22;21637;53.352;-6.356;2024-01-07T02:04:36;1.10;99.90
35531;DHT22;21637;53.352;-6.356;2024-01-07T02:07:02;1.00;99.90
35531;DHT22;21637;53.352;-6.356;2024-01-07T02:09:28;1.00;99.90
35531;DHT22;21637;53.352;-6.356;2024-01-07T02:12:01;1.10;99.90
35531;DHT22;21637;53.352;-6.356;2024-01-07T02:14:27;1.10;99.90
35531;DHT22;21637;53.352;-6.356;2024-01-07T02:16:53;1.00;99.90
35531;DHT22;21637;53.352;-6.356;2024-01-07T02:19:20;1.10;99.90
35531;DHT22;21637;53.352;-6.356;2024-01-07T02:21:47;1.00;99.90
35531;DHT22;21637;53.352;-6.356;2024-01-07T02:24:16;1.00;99.90
35531;DHT22;21637;53.352;-6.356;2024-01-07T02:26:42;0.90;99.90
35531;DHT22;21637;53.352;-6.356;2024-01-07T02:29:08;0.90;99.90
35531;DHT22;21637;53.352;-6.356;2024-01-07T02:31:33;0.90;99.90
35531;DHT22;21637;53.352;-6.356;2024-01-07T02:33:59;0.90;99.90
35531;DHT22;21637;53.352;-6.356;2024-01-07T02:36:25;1.00;99.90
35531;DHT22;21637;53.352;-6.356;2024-01-07T02:38:51;0.80;99.90
35531;DHT22;21637;53.352;-6.356;2024-01-07T02:41:18;0.90;99.90
35531;DHT22;21637;53.352;-6.356;2024-01-07T02:43:45;0.90;99.90
35531;DHT22;21637;53.352;-6.356;2024-01-07T02:46:11;0.90;99.90
35531;DHT22;21637;53.352;-6.356;2024-01-07T02:48:37;0.90;99.90
35531;DHT22;21637;53.352;-6.356;2024-01-07T02:51:03;0.90;99.90
35531;DHT22;21637;53.352;-6.356;2024-01-07T02:53:30;0.90;99.90
35531;DHT22;21637;53.352;-6.356;2024-01-07T02:55:56;0.70;99.90
35531;DHT22;21637;53.352;-6.356;2024-01-07T02:58:24;0.80;99.90
35531;DHT22;21637;53.352;-6.356;2024-01-07T03:00:50;0.60;99.90
35531;DHT22;21637;53.352;-6.356;2024-01-07T03:03:16;0.70;99.90
35531;DHT22;21637;53.352;-6.356;2024-01-07T03:05:42;0.60;99.90
35531;DHT22;21637;53.352;-6.356;2024-01-07T03:08:07;0.70;99.90
35531;DHT22;21637;53.352;-6.356;2024-01-07T03:10:33;0.50;99.90
35531;DHT22;21637;53.352;-6.356;2024-01-07T03:13:00;0.50;99.90
35531;DHT22;21637;53.352;-6.356;2024-01-07T03:15:26;0.40;99.90
35531;DHT22;21637;53.352;-6.356;2024-01-07T03:17:51;0.40;99.90
35531;DHT22;21637;53.352;-6.356;2024-01-07T03:20:17;0.40;99.90
35531;DHT22;21637;53.352;-6.356;2024-01-07T03:22:43;0.40;99.90
35531;DHT22;21637;53.352;-6.356;2024-01-07T03:25:09;0.50;99.90
35531;DHT22;21637;53.352;-6.356;2024-01-07T03:27:34;0.40;99.90
35531;DHT22;21637;53.352;-6.356;2024-01-07T03:30:00;0.40;99.90
35531;DHT22;21637;53.352;-6.356;2024-01-07T03:32:26;0.30;99.90
35531;DHT22;21637;53.352;-6.356;2024-01-07T03:34:51;0.20;99.90
35531;DHT22;21637;53.352;-6.356;2024-01-07T03:37:17;0.20;99.90
35531;DHT22;21637;53.352;-6.356;2024-01-07T03:39:44;0.20;99.90
35531;DHT22;21637;53.352;-6.356;2024-01-07T03:42:10;0.10;99.90
35531;DHT22;21637;53.352;-6.356;2024-01-07T03:44:37;0.30;99.90
35531;DHT22;21637;53.352;-6.356;2024-01-07T03:47:04;0.20;99.90
35531;DHT22;21637;53.352;-6.356;2024-01-07T03:49:29;0.20;99.90
35531;DHT22;21637;53.352;-6.356;2024-01-07T03:51:55;0.20;99.90
35531;DHT22;21637;53.352;-6.356;2024-01-07T03:54:21;0.20;99.90
35531;DHT22;21637;53.352;-6.356;2024-01-07T03:56:48;0.20;99.90
35531;DHT22;21637;53.352;-6.356;2024-01-07T03:59:13;0.20;99.90
35531;DHT22;21637;53.352;-6.356;2024-01-07T04:01:39;0.20;99.90
35531;DHT22;21637;53.352;-6.356;2024-01-07T04:04:06;0.20;99.90
35531;DHT22;21637;53.352;-6.356;2024-01-07T04:06:32;0.20;99.90
35531;DHT22;21637;53.352;-6.356;2024-01-07T04:08:58;0.10;99.90
35531;DHT22;21637;53.352;-6.356;2024-01-07T04:11:24;0.10;99.90
35531;DHT22;21637;53.352;-6.356;2024-01-07T04:13:49;0.00;99.90
35531;DHT22;21637;53.352;-6.356;2024-01-07T04:16:16;0.10;99.90
35531;DHT22;21637;53.352;-6.356;2024-01-07T04:18:42;0.10;99.90
35531;DHT22;21637;53.352;-6.356;2024-01-07T04:21:11;0.10;99.90
35531;DHT22;21637;53.352;-6.356;2024-01-07T04:23:39;0.10;99.90
35531;DHT22;21637;53.352;-6.356;2024-01-07T04:26:09;0.10;99.90
35531;DHT22;21637;53.352;-6.356;2024-01-07T04:28:35;0.00;99.90
35531;DHT22;21637;53.352;-6.356;2024-01-07T04:31:00;0.00;99.90
35531;DHT22;21637;53.352;-6.356;2024-01-07T04:33:26;0.00;99.90
35531;DHT22;21637;53.352;-6.356;2024-01-07T04:35:53;-0.10;99.90
35531;DHT22;21637;53.352;-6.356;2024-01-07T04:38:23;0.00;99.90
35531;DHT22;21637;53.352;-6.356;2024-01-07T04:40:49;-0.10;99.90
35531;DHT22;21637;53.352;-6.356;2024-01-07T04:43:14;-0.10;99.90
35531;DHT22;21637;53.352;-6.356;2024-01-07T04:45:40;0.00;99.90
35531;DHT22;21637;53.352;-6.356;2024-01-07T04:48:06;-0.10;99.90
35531;DHT22;21637;53.352;-6.356;2024-01-07T04:50:32;-0.10;99.90
35531;DHT22;21637;53.352;-6.356;2024-01-07T04:52:58;-0.10;99.90
35531;DHT22;21637;53.352;-6.356;2024-01-07T04:55:23;0.00;99.90
35531;DHT22;21637;53.352;-6.356;2024-01-07T04:57:49;-0.10;99.90
35531;DHT22;21637;53.352;-6.356;2024-01-07T05:00:16;-0.10;99.90
35531;DHT22;21637;53.352;-6.356;2024-01-07T05:02:41;-0.10;99.90
35531;DHT22;21637;53.352;-6.356;2024-01-07T05:05:10;-0.20;99.90
35531;DHT22;21637;53.352;-6.356;2024-01-07T05:07:36;-0.20;99.90
35531;DHT22;21637;53.352;-6.356;2024-01-07T05:10:02;-0.10;99.90
35531;DHT22;21637;53.352;-6.356;2024-01-07T05:12:28;-0.10;99.90
35531;DHT22;21637;53.352;-6.356;2024-01-07T05:14:54;-0.20;99.90
35531;DHT22;21637;53.352;-6.356;2024-01-07T05:17:20;-0.30;99.90
35531;DHT22;21637;53.352;-6.356;2024-01-07T05:19:46;-0.20;99.90
35531;DHT22;21637;53.352;-6.356;2024-01-07T05:22:11;-0.20;99.90
35531;DHT22;21637;53.352;-6.356;2024-01-07T05:24:38;-0.20;99.90
35531;DHT22;21637;53.352;-6.356;2024-01-07T05:27:06;-0.20;99.90
35531;DHT22;21637;53.352;-6.356;2024-01-07T05:29:32;-0.20;99.90
35531;DHT22;21637;53.352;-6.356;2024-01-07T05:31:59;-0.40;99.90
35531;DHT22;21637;53.352;-6.356;2024-01-07T05:34:27;-0.40;99.90
35531;DHT22;21637;53.352;-6.356;2024-01-07T05:36:53;-0.30;99.90
35531;DHT22;21637;53.352;-6.356;2024-01-07T05:39:18;-0.30;99.90
35531;DHT22;21637;53.352;-6.356;2024-01-07T05:41:45;-0.20;99.90
35531;DHT22;21637;53.352;-6.356;2024-01-07T05:44:12;-0.30;99.90
35531;DHT22;21637;53.352;-6.356;2024-01-07T05:46:41;-0.20;99.90
35531;DHT22;21637;53.352;-6.356;2024-01-07T05:49:08;-0.30;99.90
35531;DHT22;21637;53.352;-6.356;2024-01-07T05:51:33;-0.20;99.90
35531;DHT22;21637;53.352;-6.356;2024-01-07T05:53:59;-0.30;99.90
35531;DHT22;21637;53.352;-6.356;2024-01-07T05:56:25;-0.30;99.90
35531;DHT22;21637;53.352;-6.356;2024-01-07T05:58:51;-0.30;99.90
35531;DHT22;21637;53.352;-6.356;2024-01-07T06:01:20;-0.30;99.90
35531;DHT22;21637;53.352;-6.356;2024-01-07T06:03:47;-0.30;99.90
35531;DHT22;21637;53.352;-6.356;2024-01-07T06:06:16;-0.30;99.90
35531;DHT22;21637;53.352;-6.356;2024-01-07T06:08:42;-0.30;99.90
35531;DHT22;21637;53.352;-6.356;2024-01-07T06:11:08;-0.20;99.90
35531;DHT22;21637;53.352;-6.356;2024-01-07T06:13:36;-0.20;99.90
35531;DHT22;21637;53.352;-6.356;2024-01-07T06:16:01;-0.20;99.90
35531;DHT22;21637;53.352;-6.356;2024-01-07T06:18:29;-0.30;99.90
35531;DHT22;21637;53.352;-6.356;2024-01-07T06:20:54;-0.20;99.90
35531;DHT22;21637;53.352;-6.356;2024-01-07T06:23:20;-0.30;99.90
35531;DHT22;21637;53.352;-6.356;2024-01-07T06:25:46;-0.20;99.90
35531;DHT22;21637;53.352;-6.356;2024-01-07T06:28:12;-0.30;99.90
35531;DHT22;21637;53.352;-6.356;2024-01-07T06:30:37;-0.20;99.90
35531;DHT22;21637;53.352;-6.356;2024-01-07T06:33:04;-0.30;99.90
35531;DHT22;21637;53.352;-6.356;2024-01-07T06:35:30;-0.30;99.90
35531;DHT22;21637;53.352;-6.356;2024-01-07T06:37:57;-0.20;99.90
35531;DHT22;21637;53.352;-6.356;2024-01-07T06:40:23;-0.30;99.90
35531;DHT22;21637;53.352;-6.356;2024-01-07T06:42:50;-0.20;99.90
35531;DHT22;21637;53.352;-6.356;2024-01-07T06:45:16;-0.20;99.90
35531;DHT22;21637;53.352;-6.356;2024-01-07T06:47:42;-0.10;99.90
35531;DHT22;21637;53.352;-6.356;2024-01-07T06:50:10;-0.20;99.90
35531;DHT22;21637;53.352;-6.356;2024-01-07T06:52:36;-0.20;99.90
35531;DHT22;21637;53.352;-6.356;2024-01-07T06:55:01;-0.10;99.90
35531;DHT22;21637;53.352;-6.356;2024-01-07T06:57:27;-0.10;99.90
35531;DHT22;21637;53.352;-6.356;2024-01-07T06:59:53;-0.20;99.90
35531;DHT22;21637;53.352;-6.356;2024-01-07T07:02:20;-0.20;99.90
35531;DHT22;21637;53.352;-6.356;2024-01-07T07:04:47;-0.10;99.90
35531;DHT22;21637;53.352;-6.356;2024-01-07T07:07:13;-0.20;99.90
35531;DHT22;21637;53.352;-6.356;2024-01-07T07:09:39;-0.20;99.90
35531;DHT22;21637;53.352;-6.356;2024-01-07T07:12:05;-0.20;99.90
35531;DHT22;21637;53.352;-6.356;2024-01-07T07:14:31;-0.30;99.90
35531;DHT22;21637;53.352;-6.356;2024-01-07T07:16:58;-0.20;99.90
35531;DHT22;21637;53.352;-6.356;2024-01-07T07:19:24;-0.10;99.90
35531;DHT22;21637;53.352;-6.356;2024-01-07T07:21:49;-0.20;99.90
35531;DHT22;21637;53.352;-6.356;2024-01-07T07:24:15;-0.20;99.90
35531;DHT22;21637;53.352;-6.356;2024-01-07T07:26:41;-0.20;99.90
35531;DHT22;21637;53.352;-6.356;2024-01-07T07:29:08;-0.30;99.90
35531;DHT22;21637;53.352;-6.356;2024-01-07T07:31:35;-0.10;99.90
35531;DHT22;21637;53.352;-6.356;2024-01-07T07:34:08;-0.10;99.90
35531;DHT22;21637;53.352;-6.356;2024-01-07T07:36:34;-0.10;99.90
35531;DHT22;21637;53.352;-6.356;2024-01-07T07:39:00;-0.10;99.90
35531;DHT22;21637;53.352;-6.356;2024-01-07T07:41:25;0.00;99.90
35531;DHT22;21637;53.352;-6.356;2024-01-07T07:43:51;0.00;99.90
35531;DHT22;21637;53.352;-6.356;2024-01-07T07:46:17;0.00;99.90
35531;DHT22;21637;53.352;-6.356;2024-01-07T07:48:43;0.00;99.90
35531;DHT22;21637;53.352;-6.356;2024-01-07T07:51:08;0.00;99.90
35531;DHT22;21637;53.352;-6.356;2024-01-07T07:53:34;0.10;99.90
35531;DHT22;21637;53.352;-6.356;2024-01-07T07:56:03;0.10;99.90
35531;DHT22;21637;53.352;-6.356;2024-01-07T07:58:29;0.20;99.90
35531;DHT22;21637;53.352;-6.356;2024-01-07T08:00:54;0.20;99.90
35531;DHT22;21637;53.352;-6.356;2024-01-07T08:03:20;0.20;99.90
35531;DHT22;21637;53.352;-6.356;2024-01-07T08:05:46;0.20;99.90
35531;DHT22;21637;53.352;-6.356;2024-01-07T08:08:12;0.10;99.90
35531;DHT22;21637;53.352;-6.356;2024-01-07T08:10:37;0.20;99.90
35531;DHT22;21637;53.352;-6.356;2024-01-07T08:13:04;0.10;99.90
35531;DHT22;21637;53.352;-6.356;2024-01-07T08:15:31;0.20;99.90
35531;DHT22;21637;53.352;-6.356;2024-01-07T08:17:57;0.10;99.90
35531;DHT22;21637;53.352;-6.356;2024-01-07T08:20:23;0.10;99.90
35531;DHT22;21637;53.352;-6.356;2024-01-07T08:22:48;0.10;99.90
35531;DHT22;21637;53.352;-6.356;2024-01-07T08:25:15;0.10;99.90
35531;DHT22;21637;53.352;-6.356;2024-01-07T08:27:41;0.10;99.90
35531;DHT22;21637;53.352;-6.356;2024-01-07T08:30:07;0.20;99.90
35531;DHT22;21637;53.352;-6.356;2024-01-07T08:32:33;0.10;99.90
35531;DHT22;21637;53.352;-6.356;2024-01-07T08:35:00;0.20;99.90
35531;DHT22;21637;53.352;-6.356;2024-01-07T08:37:26;0.20;99.90
35531;DHT22;21637;53.352;-6.356;2024-01-07T08:39:52;0.20;99.90
35531;DHT22;21637;53.352;-6.356;2024-01-07T08:42:17;0.10;99.90
35531;DHT22;21637;53.352;-6.356;2024-01-07T08:44:43;0.20;99.90
35531;DHT22;21637;53.352;-6.356;2024-01-07T08:47:09;0.20;99.90
35531;DHT22;21637;53.352;-6.356;2024-01-07T08:49:34;0.30;99.90
35531;DHT22;21637;53.352;-6.356;2024-01-07T08:52:01;0.10;99.90
35531;DHT22;21637;53.352;-6.356;2024-01-07T08:54:27;0.20;99.90
35531;DHT22;21637;53.352;-6.356;2024-01-07T08:56:53;0.20;99.90
35531;DHT22;21637;53.352;-6.356;2024-01-07T08:59:19;0.20;99.90
35531;DHT22;21637;53.352;-6.356;2024-01-07T09:01:44;0.20;99.90
35531;DHT22;21637;53.352;-6.356;2024-01-07T09:04:10;0.30;99.90
35531;DHT22;21637;53.352;-6.356;2024-01-07T09:06:36;0.20;99.90
35531;DHT22;21637;53.352;-6.356;2024-01-07T09:09:01;0.20;99.90
35531;DHT22;21637;53.352;-6.356;2024-01-07T09:11:27;0.30;99.90
35531;DHT22;21637;53.352;-6.356;2024-01-07T09:13:53;0.20;99.90
35531;DHT22;21637;53.352;-6.356;2024-01-07T09:16:19;0.20;99.90
35531;DHT22;21637;53.352;-6.356;2024-01-07T09:18:44;0.30;99.90
35531;DHT22;21637;53.352;-6.356;2024-01-07T09:21:10;0.30;99.90
35531;DHT22;21637;53.352;-6.356;2024-01-07T09:23:37;0.30;99.90
35531;DHT22;21637;53.352;-6.356;2024-01-07T09:26:03;0.30;99.90
35531;DHT22;21637;53.352;-6.356;2024-01-07T09:28:28;0.20;99.90
35531;DHT22;21637;53.352;-6.356;2024-01-07T09:30:54;0.20;99.90
35531;DHT22;21637;53.352;-6.356;2024-01-07T09:33:20;0.20;99.90
35531;DHT22;21637;53.352;-6.356;2024-01-07T09:35:48;0.20;99.90
35531;DHT22;21637;53.352;-6.356;2024-01-07T09:38:13;0.30;99.90
35531;DHT22;21637;53.352;-6.356;2024-01-07T09:40:39;0.30;99.90
35531;DHT22;21637;53.352;-6.356;2024-01-07T09:43:05;0.40;99.90
35531;DHT22;21637;53.352;-6.356;2024-01-07T09:45:31;0.40;99.90
35531;DHT22;21637;53.352;-6.356;2024-01-07T09:47:57;0.40;99.90
35531;DHT22;21637;53.352;-6.356;2024-01-07T09:50:23;0.40;99.90
35531;DHT22;21637;53.352;-6.356;2024-01-07T09:52:51;0.40;99.90
35531;DHT22;21637;53.352;-6.356;2024-01-07T09:55:27;0.40;99.90
35531;DHT22;21637;53.352;-6.356;2024-01-07T09:57:55;0.30;99.90
35531;DHT22;21637;53.352;-6.356;2024-01-07T10:00:20;0.40;99.90
35531;DHT22;21637;53.352;-6.356;2024-01-07T10:02:46;0.40;99.90
35531;DHT22;21637;53.352;-6.356;2024-01-07T10:05:12;0.60;99.90
35531;DHT22;21637;53.352;-6.356;2024-01-07T10:07:38;0.40;99.90
35531;DHT22;21637;53.352;-6.356;2024-01-07T10:10:17;0.50;99.90
35531;DHT22;21637;53.352;-6.356;2024-01-07T10:12:46;0.60;99.90
35531;DHT22;21637;53.352;-6.356;2024-01-07T10:15:13;0.50;99.90
35531;DHT22;21637;53.352;-6.356;2024-01-07T10:17:41;0.60;99.90
35531;DHT22;21637;53.352;-6.356;2024-01-07T10:20:07;0.60;99.90
35531;DHT22;21637;53.352;-6.356;2024-01-07T10:22:39;0.50;99.90
35531;DHT22;21637;53.352;-6.356;2024-01-07T10:25:05;0.50;99.90
35531;DHT22;21637;53.352;-6.356;2024-01-07T10:27:38;0.40;99.90
35531;DHT22;21637;53.352;-6.356;2024-01-07T10:30:04;0.40;99.90
35531;DHT22;21637;53.352;-6.356;2024-01-07T10:32:30;0.50;99.90
35531;DHT22;21637;53.352;-6.356;2024-01-07T10:35:02;0.60;99.90
35531;DHT22;21637;53.352;-6.356;2024-01-07T10:37:29;0.60;99.90
35531;DHT22;21637;53.352;-6.356;2024-01-07T10:39:58;0.60;99.90
35531;DHT22;21637;53.352;-6.356;2024-01-07T10:42:32;0.60;99.90
35531;DHT22;21637;53.352;-6.356;2024-01-07T10:45:01;0.70;99.90
35531;DHT22;21637;53.352;-6.356;2024-01-07T10:47:30;0.60;99.90
35531;DHT22;21637;53.352;-6.356;2024-01-07T10:49:58;0.70;99.90
35531;DHT22;21637;53.352;-6.356;2024-01-07T10:52:27;0.60;99.90
35531;DHT22;21637;53.352;-6.356;2024-01-07T10:54:56;0.60;99.90
35531;DHT22;21637;53.352;-6.356;2024-01-07T10:57:32;0.50;99.90
35531;DHT22;21637;53.352;-6.356;2024-01-07T11:00:00;0.50;99.90
35531;DHT22;21637;53.352;-6.356;2024-01-07T11:02:26;0.50;99.90
35531;DHT22;21637;53.352;-6.356;2024-01-07T11:05:20;0.60;99.90
35531;DHT22;21637;53.352;-6.356;2024-01-07T11:07:57;0.40;99.90
35531;DHT22;21637;53.352;-6.356;2024-01-07T11:10:37;0.40;99.90
35531;DHT22;21637;53.352;-6.356;2024-01-07T11:13:04;0.40;99.90
35531;DHT22;21637;53.352;-6.356;2024-01-07T11:18:20;0.40;99.90
35531;DHT22;21637;53.352;-6.356;2024-01-07T11:20:46;0.30;99.90
35531;DHT22;21637;53.352;-6.356;2024-01-07T11:23:42;0.40;99.90
35531;DHT22;21637;53.352;-6.356;2024-01-07T11:26:09;0.40;99.90
35531;DHT22;21637;53.352;-6.356;2024-01-07T11:28:45;0.40;99.90
35531;DHT22;21637;53.352;-6.356;2024-01-07T11:31:11;0.50;99.90
35531;DHT22;21637;53.352;-6.356;2024-01-07T11:33:37;0.60;99.90
35531;DHT22;21637;53.352;-6.356;2024-01-07T11:36:04;0.80;99.90
35531;DHT22;21637;53.352;-6.356;2024-01-07T11:38:30;0.70;99.90
35531;DHT22;21637;53.352;-6.356;2024-01-07T11:40:57;0.70;99.90
35531;DHT22;21637;53.352;-6.356;2024-01-07T11:43:24;0.70;99.90
35531;DHT22;21637;53.352;-6.356;2024-01-07T11:45:50;0.90;99.90
35531;DHT22;21637;53.352;-6.356;2024-01-07T11:48:20;0.80;99.90
35531;DHT22;21637;53.352;-6.356;2024-01-07T11:50:45;0.80;99.90
35531;DHT22;21637;53.352;-6.356;2024-01-07T11:53:12;0.90;99.90
35531;DHT22;21637;53.352;-6.356;2024-01-07T11:55:38;0.80;99.90
35531;DHT22;21637;53.352;-6.356;2024-01-07T11:58:04;0.90;99.90
35531;DHT22;21637;53.352;-6.356;2024-01-07T12:00:35;0.90;99.90
35531;DHT22;21637;53.352;-6.356;2024-01-07T12:03:02;0.90;99.90
35531;DHT22;21637;53.352;-6.356;2024-01-07T12:05:28;1.00;99.90
35531;DHT22;21637;53.352;-6.356;2024-01-07T12:07:55;0.90;99.90
35531;DHT22;21637;53.352;-6.356;2024-01-07T12:10:21;0.90;99.90
35531;DHT22;21637;53.352;-6.356;2024-01-07T12:12:47;0.90;99.90
35531;DHT22;21637;53.352;-6.356;2024-01-07T12:15:14;1.00;99.90
35531;DHT22;21637;53.352;-6.356;2024-01-07T12:17:40;1.00;99.90
35531;DHT22;21637;53.352;-6.356;2024-01-07T12:20:06;1.10;99.90
35531;DHT22;21637;53.352;-6.356;2024-01-07T12:22:42;1.10;99.90
35531;DHT22;21637;53.352;-6.356;2024-01-07T12:25:08;1.10;99.90
35531;DHT22;21637;53.352;-6.356;2024-01-07T12:27:35;1.20;99.90
35531;DHT22;21637;53.352;-6.356;2024-01-07T12:30:01;1.20;99.90
35531;DHT22;21637;53.352;-6.356;2024-01-07T12:32:29;1.30;99.90
35531;DHT22;21637;53.352;-6.356;2024-01-07T12:34:59;1.30;99.90
35531;DHT22;21637;53.352;-6.356;2024-01-07T12:37:28;1.30;99.90
35531;DHT22;21637;53.352;-6.356;2024-01-07T12:39:54;1.40;99.90
35531;DHT22;21637;53.352;-6.356;2024-01-07T12:42:20;1.30;99.90
35531;DHT22;21637;53.352;-6.356;2024-01-07T12:44:50;1.40;99.90
35531;DHT22;21637;53.352;-6.356;2024-01-07T12:47:16;1.50;99.90
35531;DHT22;21637;53.352;-6.356;2024-01-07T12:49:42;1.60;99.90
35531;DHT22;21637;53.352;-6.356;2024-01-07T12:52:08;1.50;99.90
35531;DHT22;21637;53.352;-6.356;2024-01-07T12:54:35;1.50;99.90
35531;DHT22;21637;53.352;-6.356;2024-01-07T12:57:00;1.70;99.90
35531;DHT22;21637;53.352;-6.356;2024-01-07T12:59:26;1.90;99.90
35531;DHT22;21637;53.352;-6.356;2024-01-07T13:01:52;1.90;99.90
35531;DHT22;21637;53.352;-6.356;2024-01-07T13:04:19;2.10;99.90
35531;DHT22;21637;53.352;-6.356;2024-01-07T13:06:45;2.20;99.90
35531;DHT22;21637;53.352;-6.356;2024-01-07T13:09:11;2.10;99.90
35531;DHT22;21637;53.352;-6.356;2024-01-07T13:11:37;2.20;99.90
35531;DHT22;21637;53.352;-6.356;2024-01-07T13:14:03;2.00;99.90
35531;DHT22;21637;53.352;-6.356;2024-01-07T13:16:29;1.90;99.90
35531;DHT22;21637;53.352;-6.356;2024-01-07T13:18:55;1.70;99.90
35531;DHT22;21637;53.352;-6.356;2024-01-07T13:21:21;1.70;99.90
35531;DHT22;21637;53.352;-6.356;2024-01-07T13:23:47;1.80;99.90
35531;DHT22;21637;53.352;-6.356;2024-01-07T13:26:16;1.80;99.90
35531;DHT22;21637;53.352;-6.356;2024-01-07T13:28:42;1.90;99.90
35531;DHT22;21637;53.352;-6.356;2024-01-07T13:31:09;1.80;99.90
35531;DHT22;21637;53.352;-6.356;2024-01-07T13:33:37;2.00;99.90
35531;DHT22;21637;53.352;-6.356;2024-01-07T13:36:03;2.00;99.90
35531;DHT22;21637;53.352;-6.356;2024-01-07T13:38:34;1.90;99.90
35531;DHT22;21637;53.352;-6.356;2024-01-07T13:41:00;2.10;99.90
35531;DHT22;21637;53.352;-6.356;2024-01-07T13:43:26;2.20;99.90
35531;DHT22;21637;53.352;-6.356;2024-01-07T13:45:55;2.30;99.90
35531;DHT22;21637;53.352;-6.356;2024-01-07T13:48:21;2.40;99.90
35531;DHT22;21637;53.352;-6.356;2024-01-07T13:50:46;2.50;99.90
35531;DHT22;21637;53.352;-6.356;2024-01-07T13:53:14;2.50;99.90
35531;DHT22;21637;53.352;-6.356;2024-01-07T13:55:40;2.60;99.90
35531;DHT22;21637;53.352;-6.356;2024-01-07T13:58:05;2.70;99.90
35531;DHT22;21637;53.352;-6.356;2024-01-07T14:00:31;2.80;99.90
35531;DHT22;21637;53.352;-6.356;2024-01-07T14:02:57;2.80;99.90
35531;DHT22;21637;53.352;-6.356;2024-01-07T14:05:23;2.70;99.90
35531;DHT22;21637;53.352;-6.356;2024-01-07T14:07:48;2.90;99.90
35531;DHT22;21637;53.352;-6.356;2024-01-07T14:10:14;2.80;99.90
35531;DHT22;21637;53.352;-6.356;2024-01-07T14:12:40;2.90;99.90
35531;DHT22;21637;53.352;-6.356;2024-01-07T14:15:06;2.70;99.90
35531;DHT22;21637;53.352;-6.356;2024-01-07T14:17:34;2.90;99.90
35531;DHT22;21637;53.352;-6.356;2024-01-07T14:20:00;2.80;99.90
35531;DHT22;21637;53.352;-6.356;2024-01-07T14:22:26;2.90;99.90
35531;DHT22;21637;53.352;-6.356;2024-01-07T14:24:51;2.90;99.90
35531;DHT22;21637;53.352;-6.356;2024-01-07T14:27:17;2.80;99.90
35531;DHT22;21637;53.352;-6.356;2024-01-07T14:29:43;3.00;99.90
35531;DHT22;21637;53.352;-6.356;2024-01-07T14:32:10;2.90;99.90
35531;DHT22;21637;53.352;-6.356;2024-01-07T14:34:39;3.10;99.90
35531;DHT22;21637;53.352;-6.356;2024-01-07T14:37:07;3.00;99.90
35531;DHT22;21637;53.352;-6.356;2024-01-07T14:39:36;2.70;99.90
35531;DHT22;21637;53.352;-6.356;2024-01-07T14:42:01;2.70;99.90
35531;DHT22;21637;53.352;-6.356;2024-01-07T14:44:27;2.60;99.90
35531;DHT22;21637;53.352;-6.356;2024-01-07T14:46:53;2.60;99.90
35531;DHT22;21637;53.352;-6.356;2024-01-07T14:49:18;2.60;99.90
35531;DHT22;21637;53.352;-6.356;2024-01-07T14:51:44;2.40;99.90
35531;DHT22;21637;53.352;-6.356;2024-01-07T14:54:10;2.40;99.90
35531;DHT22;21637;53.352;-6.356;2024-01-07T14:56:35;2.40;99.90
35531;DHT22;21637;53.352;-6.356;2024-01-07T14:59:01;2.30;99.90
35531;DHT22;21637;53.352;-6.356;2024-01-07T15:01:27;2.40;99.90
35531;DHT22;21637;53.352;-6.356;2024-01-07T15:03:54;2.30;99.90
35531;DHT22;21637;53.352;-6.356;2024-01-07T15:06:19;2.40;99.90
35531;DHT22;21637;53.352;-6.356;2024-01-07T15:08:45;2.40;99.90
35531;DHT22;21637;53.352;-6.356;2024-01-07T15:11:13;2.30;99.90
35531;DHT22;21637;53.352;-6.356;2024-01-07T15:13:39;2.40;99.90
35531;DHT22;21637;53.352;-6.356;2024-01-07T15:16:05;2.30;99.90
35531;DHT22;21637;53.352;-6.356;2024-01-07T15:18:31;2.50;99.90
35531;DHT22;21637;53.352;-6.356;2024-01-07T15:20:57;2.40;99.90
35531;DHT22;21637;53.352;-6.356;2024-01-07T15:23:23;2.40;99.90
35531;DHT22;21637;53.352;-6.356;2024-01-07T15:25:49;2.30;99.90